createdAt,value
2023-04-04T00:01:46.272Z,41.40
2023-04-04T00:03:51.701Z,41.30
2023-04-04T00:05:53.498Z,41.30
2023-04-04T00:07:55.137Z,41.40
2023-04-04T00:09:56.772Z,41.30
2023-04-04T00:11:58.851Z,41.30
2023-04-04T00:14:00.493Z,41.40
2023-04-04T00:16:02.431Z,41.30
2023-04-04T00:18:04.599Z,41.30
2023-04-04T00:20:07.452Z,41.30
2023-04-04T00:22:09.304Z,41.30
2023-04-04T00:24:10.958Z,41.30
2023-04-04T00:26:12.610Z,41.30
2023-04-04T00:28:14.271Z,41.30
2023-04-04T00:30:16.258Z,41.20
2023-04-04T00:32:17.967Z,41.30
2023-04-04T00:34:19.739Z,41.30
2023-04-04T00:36:21.461Z,41.30
2023-04-04T00:38:23.102Z,41.30
2023-04-04T00:40:24.818Z,41.30
2023-04-04T00:42:27.708Z,41.20
2023-04-04T00:44:30.572Z,41.30
2023-04-04T00:46:33.590Z,41.30
2023-04-04T00:48:36.094Z,41.20
2023-04-04T00:50:38.149Z,41.20
2023-04-04T00:52:41.006Z,41.20
2023-04-04T00:54:42.985Z,41.20
2023-04-04T00:56:44.720Z,41.20
2023-04-04T00:58:47.023Z,41.20
2023-04-04T01:00:48.763Z,41.10
2023-04-04T01:02:50.835Z,41.20
2023-04-04T01:04:52.532Z,41.10
2023-04-04T01:06:54.318Z,41.10
2023-04-04T01:08:56.048Z,41.20
2023-04-04T01:10:57.754Z,41.20
2023-04-04T01:13:00.400Z,41.10
2023-04-04T01:15:02.136Z,41.10
2023-04-04T01:17:05.562Z,41.10
2023-04-04T01:19:14.194Z,41.20
2023-04-04T01:21:21.721Z,41.10
2023-04-04T01:23:28.528Z,41.10
2023-04-04T01:25:34.622Z,41.10
2023-04-04T01:27:36.293Z,41.10
2023-04-04T01:29:37.978Z,41.10
2023-04-04T01:31:42.852Z,41.10
2023-04-04T01:33:50.063Z,41.10
2023-04-04T01:36:06.594Z,41.10
2023-04-04T01:38:26.856Z,41.00
2023-04-04T01:40:35.055Z,41.10
2023-04-04T01:42:37.536Z,41.10
2023-04-04T01:44:39.625Z,41.00
2023-04-04T01:46:41.465Z,41.10
2023-04-04T01:48:43.176Z,41.00
2023-04-04T01:50:44.835Z,41.00
2023-04-04T01:52:47.675Z,41.10
2023-04-04T01:54:49.351Z,41.00
2023-04-04T01:56:51.615Z,41.00
2023-04-04T01:58:53.629Z,41.00
2023-04-04T02:00:55.545Z,41.00
2023-04-04T02:02:57.317Z,41.00
2023-04-04T02:04:59.314Z,41.00
2023-04-04T02:07:00.989Z,41.00
2023-04-04T02:09:02.698Z,40.90
2023-04-04T02:11:04.336Z,41.00
2023-04-04T02:13:06.664Z,40.90
2023-04-04T02:15:08.839Z,40.90
2023-04-04T02:17:10.812Z,40.90
2023-04-04T02:19:13.054Z,40.90
2023-04-04T02:21:14.684Z,40.90
2023-04-04T02:23:16.318Z,40.90
2023-04-04T02:25:18.008Z,40.90
2023-04-04T02:27:20.071Z,40.90
2023-04-04T02:29:21.736Z,40.90
2023-04-04T02:31:23.479Z,40.90
2023-04-04T02:33:25.153Z,40.90
2023-04-04T02:35:27.369Z,40.90
2023-04-04T02:37:29.162Z,40.90
2023-04-04T02:39:30.933Z,40.90
2023-04-04T02:41:32.587Z,40.90
2023-04-04T02:43:34.278Z,40.90
2023-04-04T02:45:35.918Z,40.90
2023-04-04T02:47:38.274Z,40.90
2023-04-04T02:49:39.997Z,40.90
2023-04-04T02:51:41.737Z,40.80
2023-04-04T02:53:43.360Z,40.90
2023-04-04T02:55:45.021Z,40.90
2023-04-04T02:57:51.872Z,40.90
2023-04-04T02:59:53.485Z,40.90
2023-04-04T03:01:55.161Z,40.80
2023-04-04T03:03:57.014Z,40.90
2023-04-04T03:05:59.875Z,40.80
2023-04-04T03:08:01.581Z,40.80
2023-04-04T03:10:03.288Z,40.80
2023-04-04T03:12:05.185Z,40.80
2023-04-04T03:14:07.525Z,40.90
2023-04-04T03:16:10.172Z,40.80
2023-04-04T03:18:11.895Z,40.80
2023-04-04T03:20:15.051Z,40.80
2023-04-04T03:22:16.807Z,40.80
2023-04-04T03:24:18.784Z,40.80
2023-04-04T03:26:20.414Z,40.80
2023-04-04T03:28:22.573Z,40.80
2023-04-04T03:30:24.205Z,40.80
2023-04-04T03:32:26.328Z,40.80
2023-04-04T03:34:28.054Z,40.70
2023-04-04T03:36:30.323Z,40.70
2023-04-04T03:38:32.007Z,40.80
2023-04-04T03:40:33.929Z,40.80
2023-04-04T03:42:35.615Z,40.70
2023-04-04T03:44:40.868Z,40.50
2023-04-04T03:46:42.616Z,40.20
2023-04-04T03:48:44.270Z,40.10
2023-04-04T03:50:45.946Z,39.90
2023-04-04T03:52:47.638Z,39.60
2023-04-04T03:54:49.272Z,39.50
2023-04-04T03:56:52.221Z,39.30
2023-04-04T03:58:56.708Z,39.20
2023-04-04T04:00:58.420Z,39.00
2023-04-04T04:03:00.159Z,38.90
2023-04-04T04:05:01.976Z,38.80
2023-04-04T04:07:03.762Z,38.80
2023-04-04T04:09:05.436Z,38.80
2023-04-04T04:11:08.076Z,39.00
2023-04-04T04:13:09.688Z,38.90
2023-04-04T04:15:11.521Z,38.90
2023-04-04T04:17:13.198Z,39.00
2023-04-04T04:19:14.809Z,39.00
2023-04-04T04:21:16.487Z,39.20
2023-04-04T04:23:18.159Z,39.20
2023-04-04T04:25:19.825Z,39.40
2023-04-04T04:27:21.445Z,39.40
2023-04-04T04:29:23.348Z,39.50
2023-04-04T04:31:24.962Z,39.60
2023-04-04T04:33:29.924Z,39.70
2023-04-04T04:35:31.746Z,39.70
2023-04-04T04:37:33.996Z,39.80
2023-04-04T04:39:36.357Z,39.70
2023-04-04T04:41:38.474Z,39.80
2023-04-04T04:43:41.107Z,39.80
2023-04-04T04:45:43.043Z,39.90
2023-04-04T04:47:44.685Z,39.90
2023-04-04T04:49:49.085Z,40.00
2023-04-04T04:51:50.942Z,40.10
2023-04-04T04:53:52.672Z,40.10
2023-04-04T04:55:54.540Z,40.10
2023-04-04T04:57:56.297Z,40.10
2023-04-04T04:59:58.079Z,40.00
2023-04-04T05:01:59.751Z,40.00
2023-04-04T05:04:01.336Z,40.00
2023-04-04T05:06:03.174Z,40.00
2023-04-04T05:08:05.384Z,39.90
2023-04-04T05:10:07.433Z,39.90
2023-04-04T05:12:09.094Z,39.90
2023-04-04T05:14:10.732Z,39.90
2023-04-04T05:16:12.450Z,39.80
2023-04-04T05:18:14.193Z,39.70
2023-04-04T05:20:15.921Z,39.80
2023-04-04T05:22:17.675Z,39.80
2023-04-04T05:24:19.518Z,39.90
2023-04-04T05:26:21.163Z,39.90
2023-04-04T05:28:23.573Z,40.10
2023-04-04T05:30:25.286Z,40.70
2023-04-04T05:32:27.069Z,40.10
2023-04-04T05:34:28.814Z,40.20
2023-04-04T05:36:30.475Z,40.10
2023-04-04T05:38:33.191Z,40.10
2023-04-04T05:40:34.911Z,40.20
2023-04-04T05:42:36.560Z,40.10
2023-04-04T05:44:38.246Z,40.10
2023-04-04T05:46:39.950Z,39.90
2023-04-04T05:48:41.665Z,39.90
2023-04-04T05:50:46.070Z,40.00
2023-04-04T05:52:47.676Z,39.80
2023-04-04T05:54:49.387Z,39.60
2023-04-04T05:56:51.157Z,39.40
2023-04-04T05:58:53.148Z,39.30
2023-04-04T06:00:54.907Z,39.40
2023-04-04T06:02:58.534Z,39.40
2023-04-04T06:05:00.429Z,39.40
2023-04-04T06:07:02.305Z,39.40
2023-04-04T06:09:04.028Z,39.40
2023-04-04T06:11:05.780Z,39.40
2023-04-04T06:13:07.479Z,39.40
2023-04-04T06:15:09.464Z,39.30
2023-04-04T06:17:11.174Z,39.30
2023-04-04T06:19:13.215Z,39.40
2023-04-04T06:21:14.891Z,39.30
2023-04-04T06:23:16.567Z,39.30
2023-04-04T06:25:18.605Z,39.30
2023-04-04T06:27:20.846Z,39.30
2023-04-04T06:29:22.576Z,39.30
2023-04-04T06:31:24.326Z,39.30
2023-04-04T06:33:26.106Z,39.30
2023-04-04T06:35:27.701Z,39.20
2023-04-04T06:37:29.345Z,39.20
2023-04-04T06:39:31.766Z,39.20
2023-04-04T06:41:33.454Z,39.20
2023-04-04T06:43:35.099Z,39.20
2023-04-04T06:45:37.616Z,39.30
2023-04-04T06:47:39.298Z,39.30
2023-04-04T06:49:41.050Z,39.30
2023-04-04T06:51:42.784Z,39.30
2023-04-04T06:53:44.477Z,39.30
2023-04-04T06:55:46.159Z,39.20
2023-04-04T06:57:47.796Z,39.20
2023-04-04T06:59:49.514Z,39.20
2023-04-04T07:01:51.161Z,39.20
2023-04-04T07:03:54.309Z,39.10
2023-04-04T07:05:55.950Z,39.10
2023-04-04T07:07:57.908Z,39.10
2023-04-04T07:09:59.563Z,39.10
2023-04-04T07:12:01.372Z,39.00
2023-04-04T07:14:03.198Z,39.10
2023-04-04T07:16:05.141Z,39.00
2023-04-04T07:18:07.644Z,39.00
2023-04-04T07:20:10.132Z,39.10
2023-04-04T07:22:13.217Z,39.00
2023-04-04T07:24:14.829Z,39.10
2023-04-04T07:26:16.549Z,39.00
2023-04-04T07:28:18.179Z,39.00
2023-04-04T07:30:19.834Z,38.90
2023-04-04T07:32:23.922Z,38.90
2023-04-04T07:34:26.643Z,38.90
2023-04-04T07:36:28.462Z,38.90
2023-04-04T07:38:30.152Z,38.90
2023-04-04T07:40:31.970Z,38.80
2023-04-04T07:42:33.612Z,38.80
2023-04-04T07:44:35.533Z,38.70
2023-04-04T07:46:38.186Z,38.80
2023-04-04T07:48:40.310Z,38.70
2023-04-04T07:50:42.136Z,38.80
2023-04-04T07:52:49.446Z,38.70
2023-04-04T07:54:52.363Z,38.80
2023-04-04T07:56:54.008Z,38.80
2023-04-04T07:58:55.682Z,38.60
2023-04-04T08:00:57.407Z,38.60
2023-04-04T08:02:59.288Z,38.60
2023-04-04T08:05:01.092Z,38.50
2023-04-04T08:07:02.764Z,38.50
2023-04-04T08:09:04.965Z,38.50
2023-04-04T08:11:06.633Z,38.40
2023-04-04T08:13:10.018Z,38.40
2023-04-04T08:15:12.094Z,38.30
2023-04-04T08:17:14.780Z,38.30
2023-04-04T08:19:17.008Z,38.20
2023-04-04T08:21:19.079Z,38.20
2023-04-04T08:23:20.788Z,38.20
2023-04-04T08:25:22.865Z,38.10
2023-04-04T08:27:24.541Z,38.10
2023-04-04T08:29:28.881Z,38.10
2023-04-04T08:31:30.739Z,38.00
2023-04-04T08:33:44.609Z,38.00
2023-04-04T08:35:48.656Z,38.00
2023-04-04T08:37:50.299Z,38.00
2023-04-04T08:39:52.145Z,38.00
2023-04-04T08:42:05.679Z,38.00
2023-04-04T08:44:11.821Z,37.90
2023-04-04T08:46:15.599Z,37.90
2023-04-04T08:48:19.677Z,37.80
2023-04-04T08:50:21.610Z,37.90
2023-04-04T08:52:25.010Z,37.90
2023-04-04T08:54:28.683Z,37.90
2023-04-04T08:56:30.505Z,37.80
2023-04-04T08:58:32.540Z,37.80
2023-04-04T09:00:34.256Z,37.80
2023-04-04T09:02:48.851Z,37.80
2023-04-04T09:05:05.568Z,37.60
2023-04-04T09:07:09.806Z,37.70
2023-04-04T09:09:12.079Z,37.60
2023-04-04T09:11:14.615Z,37.70
2023-04-04T09:13:17.047Z,37.50
2023-04-04T09:15:18.778Z,37.40
2023-04-04T09:17:20.509Z,37.40
2023-04-04T09:19:23.845Z,37.40
2023-04-04T09:21:29.139Z,37.30
2023-04-04T09:23:30.874Z,37.40
2023-04-04T09:25:32.802Z,37.40
2023-04-04T09:27:34.463Z,37.40
2023-04-04T09:29:37.973Z,37.40
2023-04-04T09:31:39.771Z,37.40
2023-04-04T09:33:41.462Z,37.30
2023-04-04T09:35:52.318Z,37.30
2023-04-04T09:37:54.002Z,37.20
2023-04-04T09:39:56.385Z,37.20
2023-04-04T09:41:58.986Z,37.20
2023-04-04T09:44:01.392Z,37.10
2023-04-04T09:46:04.028Z,37.10
2023-04-04T09:48:08.893Z,37.80
2023-04-04T09:50:21.268Z,37.10
2023-04-04T09:52:22.918Z,37.10
2023-04-04T09:54:29.655Z,37.10
2023-04-04T09:56:34.181Z,37.10
2023-04-04T09:58:36.615Z,37.10
2023-04-04T10:00:42.348Z,37.10
2023-04-04T10:02:47.896Z,37.80
2023-04-04T10:04:56.557Z,37.00
2023-04-04T10:07:05.208Z,37.00
2023-04-04T10:09:08.186Z,37.00
2023-04-04T10:11:12.328Z,37.00
2023-04-04T10:13:14.473Z,37.00
2023-04-04T10:15:17.003Z,36.90
2023-04-04T10:17:18.721Z,37.00
2023-04-04T10:19:20.846Z,37.00
2023-04-04T10:21:23.870Z,37.00
2023-04-04T10:23:27.643Z,36.90
2023-04-04T10:25:30.801Z,36.90
2023-04-04T10:27:33.197Z,36.90
2023-04-04T10:29:34.837Z,36.80
2023-04-04T10:31:41.329Z,37.10
2023-04-04T10:34:12.931Z,37.00
2023-04-04T10:36:20.477Z,37.00
2023-04-04T10:38:26.543Z,37.00
2023-04-04T10:40:33.284Z,36.90
2023-04-04T10:42:41.629Z,36.90
2023-04-04T10:44:45.092Z,36.80
2023-04-04T10:46:52.040Z,36.50
2023-04-04T10:48:54.609Z,36.70
2023-04-04T10:50:57.027Z,36.90
2023-04-04T10:53:02.000Z,36.80
2023-04-04T10:55:06.355Z,36.80
2023-04-04T10:57:08.191Z,36.80
2023-04-04T10:59:13.215Z,37.40
2023-04-04T11:01:20.798Z,36.80
2023-04-04T11:03:25.336Z,36.80
2023-04-04T11:05:30.519Z,36.70
2023-04-04T11:07:32.456Z,36.60
2023-04-04T11:09:50.089Z,36.80
2023-04-04T11:12:11.034Z,36.80
2023-04-04T11:14:12.818Z,36.80
2023-04-04T11:16:17.798Z,36.80
2023-04-04T11:18:32.505Z,36.70
2023-04-04T11:20:38.229Z,36.80
2023-04-04T11:22:42.573Z,36.80
2023-04-04T11:24:44.741Z,36.80
2023-04-04T11:26:47.229Z,37.40
2023-04-04T11:28:49.029Z,36.70
2023-04-04T11:31:20.339Z,36.80
2023-04-04T11:33:29.017Z,36.70
2023-04-04T11:35:30.752Z,36.70
2023-04-04T11:37:33.271Z,36.80
2023-04-04T11:39:50.643Z,36.70
2023-04-04T11:41:55.379Z,36.70
2023-04-04T11:43:58.086Z,36.70
2023-04-04T11:46:08.791Z,36.80
2023-04-04T11:48:10.715Z,37.00
2023-04-04T11:50:14.886Z,36.90
2023-04-04T11:52:18.118Z,36.90
2023-04-04T11:54:19.834Z,37.00
2023-04-04T11:56:21.544Z,36.90
2023-04-04T11:58:23.332Z,36.90
2023-04-04T12:00:33.274Z,36.90
2023-04-04T12:02:35.670Z,36.90
2023-04-04T12:04:39.835Z,36.90
2023-04-04T12:06:42.822Z,36.80
2023-04-04T12:08:44.533Z,37.50
2023-04-04T12:10:46.294Z,36.80
2023-04-04T12:12:48.062Z,36.70
2023-04-04T12:14:50.214Z,36.80
2023-04-04T12:16:54.753Z,36.70
2023-04-04T12:19:00.766Z,36.90
2023-04-04T12:21:02.705Z,36.70
2023-04-04T12:23:04.841Z,36.70
2023-04-04T12:25:07.529Z,36.80
2023-04-04T12:27:09.276Z,36.70
2023-04-04T12:29:12.989Z,36.80
2023-04-04T12:31:16.065Z,36.80
2023-04-04T12:33:17.886Z,37.50
2023-04-04T12:35:19.652Z,36.80
2023-04-04T12:37:22.373Z,36.80
2023-04-04T12:39:27.533Z,36.70
2023-04-04T12:41:29.350Z,37.40
2023-04-04T12:43:33.690Z,36.80
2023-04-04T12:45:39.534Z,36.80
2023-04-04T12:47:55.902Z,36.80
2023-04-04T12:49:57.706Z,36.90
2023-04-04T12:52:03.812Z,36.90
2023-04-04T12:54:09.079Z,36.90
2023-04-04T12:56:10.850Z,36.90
2023-04-04T12:58:12.916Z,36.90
2023-04-04T13:00:15.370Z,37.00
2023-04-04T13:02:19.418Z,37.00
2023-04-04T13:04:24.013Z,37.00
2023-04-04T13:06:30.520Z,37.00
2023-04-04T13:08:32.189Z,37.10
2023-04-04T13:10:56.688Z,37.10
2023-04-04T13:12:58.816Z,37.10
2023-04-04T13:15:02.614Z,37.10
2023-04-04T13:17:08.493Z,37.10
2023-04-04T13:19:10.245Z,37.10
2023-04-04T13:21:12.946Z,37.20
2023-04-04T13:23:15.867Z,37.20
2023-04-04T13:25:17.537Z,37.20
2023-04-04T13:27:19.180Z,37.20
2023-04-04T13:29:21.813Z,37.20
2023-04-04T13:31:23.573Z,37.20
2023-04-04T13:33:25.533Z,37.30
2023-04-04T13:35:27.216Z,37.20
2023-04-04T13:37:29.983Z,37.20
2023-04-04T13:39:31.781Z,37.40
2023-04-04T13:41:33.418Z,37.50
2023-04-04T13:43:35.354Z,37.50
2023-04-04T13:45:37.067Z,37.60
2023-04-04T13:47:38.847Z,37.60
2023-04-04T13:49:41.092Z,37.60
2023-04-04T13:51:42.728Z,37.60
2023-04-04T13:53:45.267Z,37.60
2023-04-04T13:56:07.603Z,37.60
2023-04-04T13:58:08.673Z,37.60
2023-04-04T14:00:10.875Z,37.60
2023-04-04T14:02:12.654Z,37.50
2023-04-04T14:04:23.254Z,37.60
2023-04-04T14:06:25.491Z,37.60
2023-04-04T14:08:27.185Z,37.70
2023-04-04T14:10:28.822Z,37.80
2023-04-04T14:12:30.549Z,37.90
2023-04-04T14:14:34.496Z,38.30
2023-04-04T14:16:37.654Z,38.50
2023-04-04T14:18:39.447Z,38.70
2023-04-04T14:20:41.517Z,38.80
2023-04-04T14:22:43.256Z,38.90
2023-04-04T14:24:44.910Z,38.90
2023-04-04T14:26:46.567Z,39.10
2023-04-04T14:28:48.545Z,39.00
2023-04-04T14:30:51.542Z,38.70
2023-04-04T14:32:54.015Z,38.80
2023-04-04T14:34:55.932Z,38.80
2023-04-04T14:36:57.622Z,37.30
2023-04-04T14:38:59.290Z,36.60
2023-04-04T14:41:01.975Z,37.30
2023-04-04T14:43:03.634Z,37.80
2023-04-04T14:45:07.782Z,38.10
2023-04-04T14:47:09.553Z,38.30
2023-04-04T14:49:11.233Z,38.60
2023-04-04T14:51:13.015Z,38.80
2023-04-04T14:53:14.736Z,38.80
2023-04-04T14:55:17.399Z,39.00
2023-04-04T14:57:19.008Z,39.30
2023-04-04T14:59:20.816Z,40.30
2023-04-04T15:01:22.797Z,40.00
2023-04-04T15:03:24.634Z,40.00
2023-04-04T15:05:26.635Z,40.10
2023-04-04T15:07:28.285Z,40.10
2023-04-04T15:09:30.666Z,40.20
2023-04-04T15:11:32.400Z,40.30
2023-04-04T15:13:34.273Z,40.70
2023-04-04T15:15:35.966Z,40.80
2023-04-04T15:17:37.692Z,40.90
2023-04-04T15:19:39.392Z,40.90
2023-04-04T15:21:41.246Z,41.30
2023-04-04T15:23:42.846Z,41.00
2023-04-04T15:25:44.534Z,40.80
2023-04-04T15:27:46.330Z,40.80
2023-04-04T15:29:48.001Z,41.30
2023-04-04T15:31:50.499Z,41.50
2023-04-04T15:33:55.115Z,41.20
2023-04-04T15:35:56.783Z,41.00
2023-04-04T15:37:58.424Z,40.90
2023-04-04T15:40:00.032Z,40.90
2023-04-04T15:42:02.080Z,40.80
2023-04-04T15:44:04.477Z,40.80
2023-04-04T15:46:06.297Z,40.90
2023-04-04T15:48:08.028Z,40.90
2023-04-04T15:50:11.560Z,40.90
2023-04-04T15:52:13.353Z,41.00
2023-04-04T15:54:15.009Z,40.90
2023-04-04T15:56:16.670Z,41.10
2023-04-04T15:58:18.411Z,41.70
2023-04-04T16:00:20.588Z,41.00
2023-04-04T16:02:22.303Z,41.00
2023-04-04T16:04:24.412Z,41.00
2023-04-04T16:06:26.126Z,40.90
2023-04-04T16:08:27.831Z,41.00
2023-04-04T16:10:29.482Z,41.10
2023-04-04T16:12:31.156Z,41.20
2023-04-04T16:14:32.810Z,41.10
2023-04-04T16:16:34.781Z,41.10
2023-04-04T16:18:37.221Z,41.10
2023-04-04T16:20:38.995Z,41.10
2023-04-04T16:22:40.768Z,41.10
2023-04-04T16:24:42.493Z,41.10
2023-04-04T16:26:47.302Z,41.10
2023-04-04T16:28:49.256Z,41.10
2023-04-04T16:30:51.318Z,41.10
2023-04-04T16:32:53.110Z,41.00
2023-04-04T16:34:54.812Z,41.00
2023-04-04T16:36:56.523Z,41.70
2023-04-04T16:38:59.700Z,41.00
2023-04-04T16:41:01.965Z,41.00
2023-04-04T16:43:03.661Z,41.10
2023-04-04T16:45:08.148Z,41.00
2023-04-04T16:47:10.990Z,41.00
2023-04-04T16:49:13.513Z,41.00
2023-04-04T16:51:15.273Z,41.10
2023-04-04T16:53:16.946Z,41.10
2023-04-04T16:55:18.865Z,41.20
2023-04-04T16:57:20.765Z,41.20
2023-04-04T16:59:22.504Z,41.30
2023-04-04T17:01:26.079Z,41.40
2023-04-04T17:03:27.721Z,41.50
2023-04-04T17:05:29.378Z,41.70
2023-04-04T17:07:31.368Z,41.80
2023-04-04T17:09:34.087Z,41.80
2023-04-04T17:11:35.890Z,42.00
2023-04-04T17:13:37.535Z,42.50
2023-04-04T17:15:39.229Z,42.70
2023-04-04T17:17:42.337Z,43.10
2023-04-04T17:19:44.524Z,43.40
2023-04-04T17:21:46.910Z,43.60
2023-04-04T17:23:48.508Z,43.60
2023-04-04T17:25:50.239Z,41.10
2023-04-04T17:27:52.049Z,41.70
2023-04-04T17:29:53.685Z,43.30
2023-04-04T17:31:56.610Z,43.20
2023-04-04T17:33:58.352Z,43.90
2023-04-04T17:36:00.040Z,43.70
2023-04-04T17:38:01.746Z,44.00
2023-04-04T17:40:05.293Z,43.80
2023-04-04T17:42:07.018Z,43.90
2023-04-04T17:44:09.213Z,44.00
2023-04-04T17:46:10.904Z,44.20
2023-04-04T17:48:12.761Z,44.20
2023-04-04T17:50:14.475Z,44.40
2023-04-04T17:52:19.081Z,44.30
2023-04-04T17:54:21.556Z,44.40
2023-04-04T17:56:24.504Z,44.40
2023-04-04T17:58:26.273Z,44.50
2023-04-04T18:00:28.257Z,44.70
2023-04-04T18:02:29.940Z,44.70
2023-04-04T18:04:31.853Z,44.70
2023-04-04T18:06:33.569Z,44.60
2023-04-04T18:08:35.325Z,44.60
2023-04-04T18:10:37.021Z,44.70
2023-04-04T18:12:39.155Z,44.70
2023-04-04T18:14:40.814Z,44.70
2023-04-04T18:16:42.539Z,44.70
2023-04-04T18:18:44.417Z,44.70
2023-04-04T18:20:46.308Z,44.60
2023-04-04T18:22:48.367Z,44.50
2023-04-04T18:24:50.005Z,44.50
2023-04-04T18:26:52.272Z,44.60
2023-04-04T18:28:53.954Z,44.90
2023-04-04T18:30:55.901Z,44.50
2023-04-04T18:32:57.790Z,44.70
2023-04-04T18:34:59.489Z,44.50
2023-04-04T18:37:01.470Z,44.30
2023-04-04T18:39:03.712Z,44.30
2023-04-04T18:41:05.740Z,44.20
2023-04-04T18:43:07.427Z,44.10
2023-04-04T18:45:09.635Z,44.90
2023-04-04T18:47:11.702Z,45.00
2023-04-04T18:49:13.395Z,46.00
2023-04-04T18:51:15.549Z,45.80
2023-04-04T18:53:17.380Z,46.00
2023-04-04T18:55:19.052Z,46.00
2023-04-04T18:57:20.934Z,45.80
2023-04-04T18:59:24.184Z,45.80
2023-04-04T19:01:26.219Z,45.80
2023-04-04T19:03:28.157Z,45.60
2023-04-04T19:05:33.754Z,45.50
2023-04-04T19:07:36.234Z,45.50
2023-04-04T19:09:39.168Z,45.50
2023-04-04T19:11:42.300Z,45.30
2023-04-04T19:13:44.034Z,45.40
2023-04-04T19:15:46.866Z,45.30
2023-04-04T19:17:48.587Z,45.20
2023-04-04T19:19:50.527Z,45.20
2023-04-04T19:21:52.211Z,45.30
2023-04-04T19:23:53.916Z,45.20
2023-04-04T19:25:55.911Z,45.30
2023-04-04T19:27:58.010Z,45.30
2023-04-04T19:29:59.673Z,45.30
2023-04-04T19:32:10.051Z,45.30
2023-04-04T19:34:13.706Z,45.30
2023-04-04T19:36:15.489Z,45.10
2023-04-04T19:38:28.400Z,45.00
2023-04-04T19:40:50.496Z,45.00
2023-04-04T19:42:52.159Z,45.00
2023-04-04T19:44:53.808Z,44.90
2023-04-04T19:46:56.149Z,44.90
2023-04-04T19:48:59.217Z,44.90
2023-04-04T19:51:05.754Z,44.80
2023-04-04T19:53:07.347Z,44.90
2023-04-04T19:55:10.224Z,44.80
2023-04-04T19:57:20.272Z,44.80
2023-04-04T19:59:59.296Z,45.00
2023-04-04T20:02:01.240Z,44.90
2023-04-04T20:04:11.826Z,44.90
2023-04-04T20:06:27.515Z,44.80
2023-04-04T20:08:45.474Z,44.80
2023-04-04T20:10:47.234Z,44.80
2023-04-04T20:12:48.926Z,44.80
2023-04-04T20:14:51.131Z,44.70
2023-04-04T20:16:54.321Z,44.70
2023-04-04T20:18:58.979Z,44.60
2023-04-04T20:21:01.728Z,44.60
2023-04-04T20:23:06.208Z,44.50
2023-04-04T20:25:11.351Z,44.50
2023-04-04T20:27:23.112Z,44.50
2023-04-04T20:29:27.587Z,44.50
2023-04-04T20:31:29.544Z,44.50
2023-04-04T20:33:33.838Z,44.50
2023-04-04T20:35:35.881Z,44.50
2023-04-04T20:37:37.705Z,44.50
2023-04-04T20:39:45.398Z,44.40
2023-04-04T20:41:47.104Z,44.40
2023-04-04T20:43:54.159Z,44.40
2023-04-04T20:45:56.244Z,44.40
2023-04-04T20:48:00.492Z,44.20
2023-04-04T20:50:27.294Z,44.20
2023-04-04T20:52:29.026Z,44.20
2023-04-04T20:54:31.217Z,44.10
2023-04-04T20:56:42.263Z,44.20
2023-04-04T20:58:43.854Z,44.10
2023-04-04T21:00:45.438Z,44.10
2023-04-04T21:02:47.504Z,44.30
2023-04-04T21:04:51.866Z,44.30
2023-04-04T21:06:53.817Z,44.30
2023-04-04T21:08:55.958Z,44.40
2023-04-04T21:10:57.948Z,44.40
2023-04-04T21:13:03.328Z,44.40
2023-04-04T21:15:09.928Z,44.40
2023-04-04T21:17:12.059Z,44.50
2023-04-04T21:19:14.014Z,44.50
2023-04-04T21:21:19.712Z,44.60
2023-04-04T21:23:27.576Z,44.50
2023-04-04T21:25:44.972Z,44.50
2023-04-04T21:27:54.369Z,44.60
2023-04-04T21:29:56.246Z,44.50
2023-04-04T21:31:58.579Z,44.60
2023-04-04T21:34:12.603Z,44.60
2023-04-04T21:36:27.678Z,44.60
2023-04-04T21:38:34.570Z,44.60
2023-04-04T21:40:36.697Z,44.70
2023-04-04T21:42:38.342Z,44.70
2023-04-04T21:44:40.324Z,44.70
2023-04-04T21:46:42.166Z,44.70
2023-04-04T21:48:43.996Z,44.80
2023-04-04T21:50:45.746Z,44.70
2023-04-04T21:52:47.350Z,44.50
2023-04-04T21:54:49.008Z,44.70
2023-04-04T21:56:50.728Z,44.70
2023-04-04T21:58:52.980Z,44.80
2023-04-04T22:00:54.674Z,44.70
2023-04-04T22:02:56.424Z,44.70
2023-04-04T22:04:59.601Z,44.70
2023-04-04T22:07:01.507Z,44.70
2023-04-04T22:09:04.057Z,44.70
2023-04-04T22:11:05.861Z,44.70
2023-04-04T22:13:08.735Z,44.70
2023-04-04T22:15:11.580Z,44.70
2023-04-04T22:17:22.759Z,44.70
2023-04-04T22:19:24.313Z,44.70
2023-04-04T22:21:27.748Z,44.70
2023-04-04T22:23:37.101Z,44.70
2023-04-04T22:25:38.850Z,44.70
2023-04-04T22:27:40.563Z,44.60
2023-04-04T22:29:42.231Z,44.70
2023-04-04T22:31:44.094Z,44.60
2023-04-04T22:33:45.828Z,44.60
2023-04-04T22:35:47.938Z,44.70
2023-04-04T22:37:50.296Z,44.70
2023-04-04T22:39:52.123Z,44.70
2023-04-04T22:41:53.867Z,44.60
2023-04-04T22:43:58.643Z,44.60
2023-04-04T22:46:00.517Z,44.70
2023-04-04T22:48:03.505Z,44.70
2023-04-04T22:50:06.433Z,44.60
2023-04-04T22:52:11.083Z,44.60
2023-04-04T22:54:14.814Z,44.60
2023-04-04T22:56:16.519Z,44.60
2023-04-04T22:58:19.798Z,44.60
2023-04-04T23:00:21.626Z,44.60
2023-04-04T23:02:23.290Z,44.60
2023-04-04T23:04:24.999Z,44.60
2023-04-04T23:06:26.700Z,44.70
2023-04-04T23:08:28.302Z,44.60
2023-04-04T23:10:30.363Z,44.60
2023-04-04T23:12:32.024Z,44.60
2023-04-04T23:14:38.554Z,44.60
2023-04-04T23:16:41.047Z,44.60
2023-04-04T23:18:42.695Z,44.60
2023-04-04T23:20:44.670Z,44.60
2023-04-04T23:22:46.815Z,44.50
2023-04-04T23:24:48.761Z,44.60
2023-04-04T23:26:50.414Z,44.50
2023-04-04T23:28:52.005Z,44.40
2023-04-04T23:30:54.655Z,44.50
2023-04-04T23:32:56.279Z,44.50
2023-04-04T23:34:58.090Z,44.40
2023-04-04T23:36:59.747Z,44.40
2023-04-04T23:39:01.601Z,44.40
2023-04-04T23:41:03.379Z,44.50
2023-04-04T23:43:05.500Z,44.40
2023-04-04T23:45:07.893Z,44.40
2023-04-04T23:47:09.557Z,44.40
2023-04-04T23:49:12.422Z,44.40
2023-04-04T23:51:15.790Z,44.40
2023-04-04T23:53:17.497Z,44.40
2023-04-04T23:55:19.418Z,44.40
2023-04-04T23:57:21.116Z,44.40
2023-04-04T23:59:22.734Z,44.30
